Coy, AR (72037)

23:34 CST le 31 janvier 2015 (GMT -0600)
Stuttgart Municipal | Change Station
CLOSE
Current Station
Aéroport
Location: Stuttgart,
Altitude: 223 ft
Stations météo à proximité

Alt. 223 ft 34.60 °N, 91.57 °W | Updated 19 minutes ago

Couvert
Couvert
45 ° F
Paraît 41 ° F
N
6
Vent Variable Vent de SE

Aujourd'hui
Haut(e) -- | Bas -- ° F
--% Risque de précip.
Hier
Haut(e) -- | Bas -- ° F
Precip. -- pouce
7:06 AM 5:35 PM
Lune gibbeuse croissante, 93% visible
Pression 30.05 pouce
Visibilité 10.0 Miles terrestres
Nuages Nuageux 3300 ft
Refroidissement éolien 41 ° F
Point de rosée 30 ° F
Humidité 57%
Précipitations 0.00 pouce
Profondeur de la couche neigeuse Non disponible.
UV 0 sur 12
Pollen 5.20 sur 12
Qualité de l'air Non disponible.
Flu Activity Non disponible.
METAR KSGT 010515Z AUTO 14005KT 10SM BKN033 07/M01 A3005 RMK AO1

More Conditions Fewer Conditions

Pression 30.05 pouce
Visibilité 10.0 Miles terrestres
Nuages Nuageux 3300 ft
Refroidissement éolien 41 ° F
Point de rosée 30 ° F
Humidité 57%
Précipitations 0.00 pouce
Profondeur de la couche neigeuse Non disponible.
UV 0 sur 12
Pollen 5.20 sur 12
Qualité de l'air Non disponible.
Flu Activity Non disponible.
METAR KSGT 010515Z AUTO 14005KT 10SM BKN033 07/M01 A3005 RMK AO1

More Conditions Fewer Conditions

10-Day Weather Forecast

Almanac

Astronomie

Jan. 31, 2015 Lever Coucher
Temps réel
Crépuscule civil
Crépuscule nautique
Crépuscule astronomique
Lune
Durée de lumière visible
Longueur du jour
Tomorrow will be .
, % of the Moon is Illuminated

Extrêmes aujourd'hui

State Highs State Lows

Community

WunderPhotos

Upload Photos

1,792,316 Photos téléchargées !

WunderBlogs® & News

Nearby

Qualité de l'air

  Qualité de l'air Indice de la qualité de l'air Polluant
Not available.

Épaisseur de neige

Station Depth Altitude

Activité sismique

Ville Distance Mag. Time & Date
Minimum magnitude displayed is 2.5.

Températures des eaux côtières

Lieu Température

Stations météo à proximité